sensor_id;sensor_type;location;lat;lon;timestamp;pressure;altitude;pressure_sealevel;temperature;humidity
49216;BME280;45943;53.148;8.204;2022-12-10T00:01:27;100913.63;;;2.27;100.00
49216;BME280;45943;53.148;8.204;2022-12-10T00:03:55;100914.09;;;2.35;100.00
49216;BME280;45943;53.148;8.204;2022-12-10T00:06:22;100917.19;;;2.45;100.00
49216;BME280;45943;53.148;8.204;2022-12-10T00:08:50;100917.72;;;2.53;100.00
49216;BME280;45943;53.148;8.204;2022-12-10T00:11:17;100918.72;;;2.50;100.00
49216;BME280;45943;53.148;8.204;2022-12-10T00:13:45;100926.38;;;2.56;100.00
49216;BME280;45943;53.148;8.204;2022-12-10T00:16:12;100922.00;;;2.55;100.00
49216;BME280;45943;53.148;8.204;2022-12-10T00:18:40;100920.88;;;2.61;100.00
49216;BME280;45943;53.148;8.204;2022-12-10T00:21:08;100925.03;;;2.67;100.00
49216;BME280;45943;53.148;8.204;2022-12-10T00:23:37;100921.22;;;2.72;100.00
49216;BME280;45943;53.148;8.204;2022-12-10T00:26:05;100927.38;;;2.73;100.00
49216;BME280;45943;53.148;8.204;2022-12-10T00:28:32;100919.59;;;2.70;100.00
49216;BME280;45943;53.148;8.204;2022-12-10T00:31:05;100927.44;;;2.71;100.00
49216;BME280;45943;53.148;8.204;2022-12-10T00:33:33;100922.00;;;2.74;100.00
49216;BME280;45943;53.148;8.204;2022-12-10T00:36:07;100925.06;;;2.65;100.00
49216;BME280;45943;53.148;8.204;2022-12-10T00:38:38;100927.66;;;2.48;100.00
49216;BME280;45943;53.148;8.204;2022-12-10T00:41:04;100926.31;;;2.58;100.00
49216;BME280;45943;53.148;8.204;2022-12-10T00:43:31;100928.72;;;2.63;100.00
49216;BME280;45943;53.148;8.204;2022-12-10T00:45:57;100928.09;;;2.57;100.00
49216;BME280;45943;53.148;8.204;2022-12-10T00:48:24;100924.78;;;2.52;100.00
49216;BME280;45943;53.148;8.204;2022-12-10T00:53:28;100918.91;;;2.46;100.00
49216;BME280;45943;53.148;8.204;2022-12-10T00:55:56;100923.06;;;2.51;100.00
49216;BME280;45943;53.148;8.204;2022-12-10T00:58:23;100920.69;;;2.45;100.00
49216;BME280;45943;53.148;8.204;2022-12-10T01:00:52;100925.34;;;2.40;100.00
49216;BME280;45943;53.148;8.204;2022-12-10T01:03:18;100924.44;;;2.41;100.00
49216;BME280;45943;53.148;8.204;2022-12-10T01:05:44;100927.84;;;2.43;100.00
49216;BME280;45943;53.148;8.204;2022-12-10T01:08:10;100931.25;;;2.47;100.00
49216;BME280;45943;53.148;8.204;2022-12-10T01:10:36;100934.38;;;2.55;100.00
49216;BME280;45943;53.148;8.204;2022-12-10T01:13:02;100942.91;;;2.62;100.00
49216;BME280;45943;53.148;8.204;2022-12-10T01:15:29;100948.91;;;2.65;100.00
49216;BME280;45943;53.148;8.204;2022-12-10T01:17:55;100940.09;;;2.65;100.00
49216;BME280;45943;53.148;8.204;2022-12-10T01:20:21;100944.06;;;2.56;100.00
49216;BME280;45943;53.148;8.204;2022-12-10T01:22:47;100937.88;;;2.55;100.00
49216;BME280;45943;53.148;8.204;2022-12-10T01:25:13;100944.63;;;2.63;100.00
49216;BME280;45943;53.148;8.204;2022-12-10T01:27:39;100945.91;;;2.54;100.00
49216;BME280;45943;53.148;8.204;2022-12-10T01:30:05;100948.63;;;2.52;100.00
49216;BME280;45943;53.148;8.204;2022-12-10T01:32:31;100957.72;;;2.47;100.00
49216;BME280;45943;53.148;8.204;2022-12-10T01:34:57;100953.06;;;2.52;100.00
49216;BME280;45943;53.148;8.204;2022-12-10T01:37:23;100954.59;;;2.57;100.00
49216;BME280;45943;53.148;8.204;2022-12-10T01:39:49;100961.44;;;2.62;100.00
49216;BME280;45943;53.148;8.204;2022-12-10T01:42:15;100968.47;;;2.63;100.00
49216;BME280;45943;53.148;8.204;2022-12-10T01:47:07;100969.38;;;2.62;100.00
49216;BME280;45943;53.148;8.204;2022-12-10T01:49:35;100971.41;;;2.56;100.00
49216;BME280;45943;53.148;8.204;2022-12-10T01:52:04;100972.19;;;2.58;100.00
49216;BME280;45943;53.148;8.204;2022-12-10T01:54:33;100975.69;;;2.59;100.00
49216;BME280;45943;53.148;8.204;2022-12-10T01:57:03;100977.41;;;2.60;100.00
49216;BME280;45943;53.148;8.204;2022-12-10T01:59:33;100974.09;;;2.55;100.00
49216;BME280;45943;53.148;8.204;2022-12-10T02:02:11;100981.63;;;3.21;100.00
49216;BME280;45943;53.148;8.204;2022-12-10T02:07:53;100976.97;;;3.62;100.00
49216;BME280;45943;53.148;8.204;2022-12-10T02:13:23;100981.56;;;2.84;100.00
49216;BME280;45943;53.148;8.204;2022-12-10T02:16:13;100979.38;;;2.55;100.00
49216;BME280;45943;53.148;8.204;2022-12-10T02:21:18;100971.88;;;3.40;100.00
49216;BME280;45943;53.148;8.204;2022-12-10T02:23:50;100974.22;;;3.46;100.00
49216;BME280;45943;53.148;8.204;2022-12-10T02:26:26;100975.34;;;3.59;100.00
49216;BME280;45943;53.148;8.204;2022-12-10T02:29:18;100983.94;;;2.91;100.00
49216;BME280;45943;53.148;8.204;2022-12-10T02:31:57;100982.09;;;2.53;100.00
49216;BME280;45943;53.148;8.204;2022-12-10T02:34:29;100980.78;;;2.82;100.00
49216;BME280;45943;53.148;8.204;2022-12-10T02:37:00;100975.84;;;2.56;100.00
49216;BME280;45943;53.148;8.204;2022-12-10T02:39:33;100973.63;;;3.03;100.00
49216;BME280;45943;53.148;8.204;2022-12-10T02:42:04;100970.47;;;3.50;100.00
49216;BME280;45943;53.148;8.204;2022-12-10T02:44:33;100962.44;;;3.34;100.00
49216;BME280;45943;53.148;8.204;2022-12-10T02:47:04;100968.84;;;3.48;100.00
49216;BME280;45943;53.148;8.204;2022-12-10T02:49:32;100978.28;;;3.53;100.00
49216;BME280;45943;53.148;8.204;2022-12-10T02:51:59;100978.84;;;3.60;100.00
49216;BME280;45943;53.148;8.204;2022-12-10T02:54:35;100969.75;;;3.65;100.00
49216;BME280;45943;53.148;8.204;2022-12-10T02:57:18;100968.53;;;3.54;100.00
49216;BME280;45943;53.148;8.204;2022-12-10T03:00:07;100970.16;;;3.39;100.00
49216;BME280;45943;53.148;8.204;2022-12-10T03:02:57;100960.25;;;3.42;100.00
49216;BME280;45943;53.148;8.204;2022-12-10T03:05:46;100964.19;;;3.34;100.00
49216;BME280;45943;53.148;8.204;2022-12-10T03:08:22;100956.94;;;3.20;100.00
49216;BME280;45943;53.148;8.204;2022-12-10T03:11:11;100956.72;;;3.25;100.00
49216;BME280;45943;53.148;8.204;2022-12-10T03:13:49;100960.16;;;3.27;100.00
49216;BME280;45943;53.148;8.204;2022-12-10T03:16:38;100958.94;;;3.15;100.00
49216;BME280;45943;53.148;8.204;2022-12-10T03:19:12;100958.53;;;3.05;100.00
49216;BME280;45943;53.148;8.204;2022-12-10T03:21:41;100962.47;;;3.15;100.00
49216;BME280;45943;53.148;8.204;2022-12-10T03:24:10;100959.00;;;3.13;100.00
49216;BME280;45943;53.148;8.204;2022-12-10T03:26:37;100962.75;;;3.09;100.00
49216;BME280;45943;53.148;8.204;2022-12-10T03:29:06;100959.84;;;3.14;100.00
49216;BME280;45943;53.148;8.204;2022-12-10T03:31:35;100960.56;;;3.36;100.00
49216;BME280;45943;53.148;8.204;2022-12-10T03:34:04;100961.78;;;3.29;100.00
49216;BME280;45943;53.148;8.204;2022-12-10T03:36:32;100961.88;;;3.28;100.00
49216;BME280;45943;53.148;8.204;2022-12-10T03:38:58;100957.34;;;3.30;100.00
49216;BME280;45943;53.148;8.204;2022-12-10T03:41:26;100957.06;;;3.36;100.00
49216;BME280;45943;53.148;8.204;2022-12-10T03:43:56;100955.03;;;3.41;100.00
49216;BME280;45943;53.148;8.204;2022-12-10T03:46:23;100952.78;;;3.51;100.00
49216;BME280;45943;53.148;8.204;2022-12-10T03:48:52;100953.31;;;3.40;100.00
49216;BME280;45943;53.148;8.204;2022-12-10T03:51:18;100957.06;;;3.36;100.00
49216;BME280;45943;53.148;8.204;2022-12-10T03:53:45;100950.94;;;3.34;100.00
49216;BME280;45943;53.148;8.204;2022-12-10T03:56:14;100960.19;;;2.31;100.00
49216;BME280;45943;53.148;8.204;2022-12-10T03:58:40;100954.84;;;2.12;100.00
49216;BME280;45943;53.148;8.204;2022-12-10T04:01:06;100955.97;;;2.07;100.00
49216;BME280;45943;53.148;8.204;2022-12-10T04:03:39;100957.94;;;2.01;100.00
49216;BME280;45943;53.148;8.204;2022-12-10T04:06:08;100963.09;;;2.05;100.00
49216;BME280;45943;53.148;8.204;2022-12-10T04:08:36;100961.28;;;2.07;100.00
49216;BME280;45943;53.148;8.204;2022-12-10T04:11:06;100966.69;;;2.04;100.00
49216;BME280;45943;53.148;8.204;2022-12-10T04:13:35;100968.75;;;1.97;100.00
49216;BME280;45943;53.148;8.204;2022-12-10T04:16:21;100959.44;;;1.87;100.00
49216;BME280;45943;53.148;8.204;2022-12-10T04:18:55;100969.78;;;1.93;100.00
49216;BME280;45943;53.148;8.204;2022-12-10T04:21:23;100963.38;;;1.78;100.00
49216;BME280;45943;53.148;8.204;2022-12-10T04:24:27;100968.78;;;1.75;100.00
49216;BME280;45943;53.148;8.204;2022-12-10T04:27:16;100964.16;;;1.80;100.00
49216;BME280;45943;53.148;8.204;2022-12-10T04:29:46;100962.06;;;1.88;100.00
49216;BME280;45943;53.148;8.204;2022-12-10T04:32:12;100963.72;;;1.91;100.00
49216;BME280;45943;53.148;8.204;2022-12-10T04:34:39;100960.28;;;1.89;100.00
49216;BME280;45943;53.148;8.204;2022-12-10T04:37:05;100967.84;;;1.96;100.00
49216;BME280;45943;53.148;8.204;2022-12-10T04:39:31;100969.66;;;1.96;100.00
49216;BME280;45943;53.148;8.204;2022-12-10T04:41:58;100964.72;;;1.88;100.00
49216;BME280;45943;53.148;8.204;2022-12-10T04:44:25;100973.56;;;1.87;100.00
49216;BME280;45943;53.148;8.204;2022-12-10T04:46:52;100965.63;;;1.87;100.00
49216;BME280;45943;53.148;8.204;2022-12-10T04:49:18;100968.72;;;1.77;100.00
49216;BME280;45943;53.148;8.204;2022-12-10T04:51:44;100976.72;;;1.75;100.00
49216;BME280;45943;53.148;8.204;2022-12-10T04:54:10;100973.59;;;1.65;100.00
49216;BME280;45943;53.148;8.204;2022-12-10T04:56:37;100974.28;;;1.70;100.00
49216;BME280;45943;53.148;8.204;2022-12-10T04:59:03;100974.66;;;1.61;100.00
49216;BME280;45943;53.148;8.204;2022-12-10T05:01:30;100968.56;;;1.59;100.00
49216;BME280;45943;53.148;8.204;2022-12-10T05:04:00;100970.47;;;1.56;100.00
49216;BME280;45943;53.148;8.204;2022-12-10T05:06:31;100970.22;;;1.62;100.00
49216;BME280;45943;53.148;8.204;2022-12-10T05:08:57;100967.97;;;1.73;100.00
49216;BME280;45943;53.148;8.204;2022-12-10T05:11:25;100966.66;;;1.83;100.00
49216;BME280;45943;53.148;8.204;2022-12-10T05:13:53;100962.91;;;1.89;100.00
49216;BME280;45943;53.148;8.204;2022-12-10T05:16:20;100972.81;;;1.84;100.00
49216;BME280;45943;53.148;8.204;2022-12-10T05:18:48;100970.63;;;1.73;100.00
49216;BME280;45943;53.148;8.204;2022-12-10T05:21:15;100958.97;;;1.57;100.00
49216;BME280;45943;53.148;8.204;2022-12-10T05:23:44;100965.78;;;1.62;100.00
49216;BME280;45943;53.148;8.204;2022-12-10T05:28:55;100960.91;;;1.73;100.00
49216;BME280;45943;53.148;8.204;2022-12-10T05:31:22;100963.69;;;1.70;100.00
49216;BME280;45943;53.148;8.204;2022-12-10T05:33:50;100962.75;;;1.71;100.00
49216;BME280;45943;53.148;8.204;2022-12-10T05:36:18;100975.06;;;1.72;100.00
49216;BME280;45943;53.148;8.204;2022-12-10T05:38:45;100972.63;;;1.68;100.00
49216;BME280;45943;53.148;8.204;2022-12-10T05:41:16;100974.81;;;1.57;100.00
49216;BME280;45943;53.148;8.204;2022-12-10T05:43:44;100970.59;;;1.53;100.00
49216;BME280;45943;53.148;8.204;2022-12-10T05:46:12;100974.53;;;1.42;100.00
49216;BME280;45943;53.148;8.204;2022-12-10T05:48:40;100980.69;;;1.85;100.00
49216;BME280;45943;53.148;8.204;2022-12-10T05:51:07;100992.94;;;1.66;100.00
49216;BME280;45943;53.148;8.204;2022-12-10T05:53:35;100993.47;;;1.54;100.00
49216;BME280;45943;53.148;8.204;2022-12-10T05:56:02;101000.59;;;1.52;100.00
49216;BME280;45943;53.148;8.204;2022-12-10T05:58:30;100994.00;;;1.62;100.00
49216;BME280;45943;53.148;8.204;2022-12-10T06:00:56;100997.31;;;1.67;100.00
49216;BME280;45943;53.148;8.204;2022-12-10T06:03:23;101001.50;;;1.72;100.00
49216;BME280;45943;53.148;8.204;2022-12-10T06:05:51;100999.47;;;1.79;100.00
49216;BME280;45943;53.148;8.204;2022-12-10T06:08:17;101002.59;;;1.89;100.00
49216;BME280;45943;53.148;8.204;2022-12-10T06:10:43;101009.91;;;1.82;100.00
49216;BME280;45943;53.148;8.204;2022-12-10T06:13:10;101005.88;;;1.73;100.00
49216;BME280;45943;53.148;8.204;2022-12-10T06:15:38;101009.44;;;1.72;100.00
49216;BME280;45943;53.148;8.204;2022-12-10T06:18:06;101010.97;;;1.78;100.00
49216;BME280;45943;53.148;8.204;2022-12-10T06:20:32;101016.31;;;1.77;100.00
49216;BME280;45943;53.148;8.204;2022-12-10T06:22:58;101017.38;;;1.72;100.00
49216;BME280;45943;53.148;8.204;2022-12-10T06:25:24;101018.06;;;1.78;100.00
49216;BME280;45943;53.148;8.204;2022-12-10T06:27:50;101019.47;;;1.64;100.00
49216;BME280;45943;53.148;8.204;2022-12-10T06:30:16;101017.03;;;1.60;100.00
49216;BME280;45943;53.148;8.204;2022-12-10T06:32:42;101018.22;;;1.73;100.00
49216;BME280;45943;53.148;8.204;2022-12-10T06:35:09;101031.13;;;1.81;100.00
49216;BME280;45943;53.148;8.204;2022-12-10T06:37:36;101029.34;;;1.81;100.00
49216;BME280;45943;53.148;8.204;2022-12-10T06:40:02;101022.66;;;1.72;100.00
49216;BME280;45943;53.148;8.204;2022-12-10T06:42:29;101033.09;;;1.76;100.00
49216;BME280;45943;53.148;8.204;2022-12-10T06:44:55;101030.91;;;1.65;100.00
49216;BME280;45943;53.148;8.204;2022-12-10T06:47:21;101025.44;;;1.69;100.00
49216;BME280;45943;53.148;8.204;2022-12-10T06:49:47;101036.31;;;1.62;100.00
49216;BME280;45943;53.148;8.204;2022-12-10T06:52:13;101035.97;;;1.49;100.00
49216;BME280;45943;53.148;8.204;2022-12-10T06:54:39;101029.44;;;1.58;100.00
49216;BME280;45943;53.148;8.204;2022-12-10T06:57:05;101035.97;;;1.49;100.00
49216;BME280;45943;53.148;8.204;2022-12-10T06:59:31;101038.81;;;1.65;100.00
49216;BME280;45943;53.148;8.204;2022-12-10T07:01:57;101034.34;;;1.67;100.00
49216;BME280;45943;53.148;8.204;2022-12-10T07:04:23;101045.03;;;1.64;100.00
49216;BME280;45943;53.148;8.204;2022-12-10T07:06:49;101052.31;;;1.59;100.00
49216;BME280;45943;53.148;8.204;2022-12-10T07:09:15;101056.41;;;1.66;100.00
49216;BME280;45943;53.148;8.204;2022-12-10T07:11:42;101054.75;;;1.63;100.00
49216;BME280;45943;53.148;8.204;2022-12-10T07:14:11;101066.19;;;1.64;100.00
49216;BME280;45943;53.148;8.204;2022-12-10T07:16:39;101062.16;;;1.77;100.00
49216;BME280;45943;53.148;8.204;2022-12-10T07:19:05;101063.38;;;1.90;100.00
49216;BME280;45943;53.148;8.204;2022-12-10T07:21:32;101069.44;;;1.92;100.00
49216;BME280;45943;53.148;8.204;2022-12-10T07:24:01;101067.88;;;1.88;100.00
49216;BME280;45943;53.148;8.204;2022-12-10T07:26:31;101067.97;;;1.85;100.00
49216;BME280;45943;53.148;8.204;2022-12-10T07:28:59;101066.31;;;1.83;100.00
49216;BME280;45943;53.148;8.204;2022-12-10T07:31:25;101068.72;;;1.89;100.00
49216;BME280;45943;53.148;8.204;2022-12-10T07:33:52;101067.19;;;1.83;100.00
49216;BME280;45943;53.148;8.204;2022-12-10T07:36:19;101073.81;;;1.93;100.00
49216;BME280;45943;53.148;8.204;2022-12-10T07:38:48;101065.31;;;1.85;100.00
49216;BME280;45943;53.148;8.204;2022-12-10T07:41:14;101067.91;;;1.87;100.00
49216;BME280;45943;53.148;8.204;2022-12-10T07:43:41;101075.91;;;2.68;100.00
49216;BME280;45943;53.148;8.204;2022-12-10T07:46:27;101077.78;;;2.04;100.00
49216;BME280;45943;53.148;8.204;2022-12-10T07:48:56;101075.78;;;1.88;100.00
49216;BME280;45943;53.148;8.204;2022-12-10T07:51:24;101077.50;;;1.89;100.00
49216;BME280;45943;53.148;8.204;2022-12-10T07:53:51;101080.09;;;1.69;100.00
49216;BME280;45943;53.148;8.204;2022-12-10T07:56:18;101078.06;;;1.76;100.00
49216;BME280;45943;53.148;8.204;2022-12-10T07:58:44;101078.31;;;1.69;100.00
49216;BME280;45943;53.148;8.204;2022-12-10T08:01:21;101081.03;;;1.68;100.00
49216;BME280;45943;53.148;8.204;2022-12-10T08:03:49;101076.69;;;1.65;100.00
49216;BME280;45943;53.148;8.204;2022-12-10T08:06:16;101085.47;;;1.67;100.00
49216;BME280;45943;53.148;8.204;2022-12-10T08:08:43;101084.03;;;2.64;100.00
49216;BME280;45943;53.148;8.204;2022-12-10T08:11:10;101093.50;;;2.90;100.00
49216;BME280;45943;53.148;8.204;2022-12-10T08:13:37;101080.97;;;2.93;100.00
49216;BME280;45943;53.148;8.204;2022-12-10T08:16:05;101082.06;;;3.08;100.00
49216;BME280;45943;53.148;8.204;2022-12-10T08:18:35;101085.16;;;3.17;100.00
49216;BME280;45943;53.148;8.204;2022-12-10T08:21:05;101088.69;;;3.18;100.00
49216;BME280;45943;53.148;8.204;2022-12-10T08:23:32;101090.22;;;3.03;100.00
49216;BME280;45943;53.148;8.204;2022-12-10T08:26:06;101093.38;;;3.11;100.00
49216;BME280;45943;53.148;8.204;2022-12-10T08:28:34;101091.66;;;3.10;100.00
49216;BME280;45943;53.148;8.204;2022-12-10T08:31:01;101098.97;;;3.05;100.00
49216;BME280;45943;53.148;8.204;2022-12-10T08:33:28;101095.28;;;2.89;100.00
49216;BME280;45943;53.148;8.204;2022-12-10T08:35:58;101103.06;;;3.31;100.00
49216;BME280;45943;53.148;8.204;2022-12-10T08:38:27;101107.06;;;3.78;100.00
49216;BME280;45943;53.148;8.204;2022-12-10T08:40:53;101100.03;;;4.13;100.00
49216;BME280;45943;53.148;8.204;2022-12-10T08:43:19;101099.09;;;3.96;100.00
49216;BME280;45943;53.148;8.204;2022-12-10T08:45:45;101092.81;;;4.34;100.00
49216;BME280;45943;53.148;8.204;2022-12-10T08:48:11;101098.66;;;4.23;100.00
49216;BME280;45943;53.148;8.204;2022-12-10T08:50:38;101097.31;;;4.14;100.00
49216;BME280;45943;53.148;8.204;2022-12-10T08:53:04;101093.88;;;4.12;100.00
49216;BME280;45943;53.148;8.204;2022-12-10T08:55:30;101093.34;;;4.23;100.00
49216;BME280;45943;53.148;8.204;2022-12-10T08:57:56;101088.19;;;4.37;100.00
49216;BME280;45943;53.148;8.204;2022-12-10T09:00:23;101097.31;;;4.49;100.00
49216;BME280;45943;53.148;8.204;2022-12-10T09:02:50;101096.47;;;4.48;100.00
49216;BME280;45943;53.148;8.204;2022-12-10T09:05:16;101095.06;;;4.41;100.00
49216;BME280;45943;53.148;8.204;2022-12-10T09:07:42;101093.25;;;4.42;100.00
49216;BME280;45943;53.148;8.204;2022-12-10T09:10:09;101102.94;;;4.60;100.00
49216;BME280;45943;53.148;8.204;2022-12-10T09:12:37;101110.22;;;4.56;100.00
49216;BME280;45943;53.148;8.204;2022-12-10T09:15:04;101107.50;;;4.58;100.00
49216;BME280;45943;53.148;8.204;2022-12-10T09:17:31;101106.41;;;4.45;100.00
49216;BME280;45943;53.148;8.204;2022-12-10T09:19:57;101110.91;;;4.25;100.00
49216;BME280;45943;53.148;8.204;2022-12-10T09:22:23;101121.88;;;4.37;100.00
49216;BME280;45943;53.148;8.204;2022-12-10T09:24:49;101120.53;;;4.45;100.00
49216;BME280;45943;53.148;8.204;2022-12-10T09:27:15;101118.41;;;4.52;100.00
49216;BME280;45943;53.148;8.204;2022-12-10T09:29:41;101124.19;;;4.60;100.00
49216;BME280;45943;53.148;8.204;2022-12-10T09:32:07;101132.16;;;4.60;100.00
49216;BME280;45943;53.148;8.204;2022-12-10T09:34:33;101127.19;;;4.54;100.00
49216;BME280;45943;53.148;8.204;2022-12-10T09:36:59;101130.38;;;4.43;100.00
49216;BME280;45943;53.148;8.204;2022-12-10T09:39:25;101127.94;;;4.39;100.00
49216;BME280;45943;53.148;8.204;2022-12-10T09:41:56;101125.00;;;4.45;100.00
49216;BME280;45943;53.148;8.204;2022-12-10T09:44:53;101126.72;;;4.46;100.00
49216;BME280;45943;53.148;8.204;2022-12-10T09:47:40;101128.88;;;4.20;100.00
49216;BME280;45943;53.148;8.204;2022-12-10T09:50:20;101127.84;;;4.06;100.00
49216;BME280;45943;53.148;8.204;2022-12-10T09:52:56;101126.47;;;4.33;100.00
49216;BME280;45943;53.148;8.204;2022-12-10T09:55:31;101132.56;;;4.35;100.00
49216;BME280;45943;53.148;8.204;2022-12-10T09:58:02;101130.53;;;4.57;100.00
49216;BME280;45943;53.148;8.204;2022-12-10T10:00:36;101132.91;;;4.64;100.00
49216;BME280;45943;53.148;8.204;2022-12-10T10:03:05;101124.66;;;4.68;100.00
49216;BME280;45943;53.148;8.204;2022-12-10T10:05:38;101135.47;;;4.65;100.00
49216;BME280;45943;53.148;8.204;2022-12-10T10:08:14;101130.69;;;4.72;100.00
49216;BME280;45943;53.148;8.204;2022-12-10T10:10:49;101134.13;;;4.74;100.00
49216;BME280;45943;53.148;8.204;2022-12-10T10:13:18;101140.31;;;4.74;100.00
49216;BME280;45943;53.148;8.204;2022-12-10T10:19:12;101138.59;;;4.73;100.00
49216;BME280;45943;53.148;8.204;2022-12-10T10:21:42;101143.28;;;4.68;100.00
49216;BME280;45943;53.148;8.204;2022-12-10T10:24:18;101141.81;;;4.63;100.00
49216;BME280;45943;53.148;8.204;2022-12-10T10:26:51;101141.88;;;4.44;100.00
49216;BME280;45943;53.148;8.204;2022-12-10T10:29:22;101148.09;;;4.60;100.00
49216;BME280;45943;53.148;8.204;2022-12-10T10:35:02;101149.34;;;4.70;100.00
49216;BME280;45943;53.148;8.204;2022-12-10T10:37:30;101142.63;;;4.98;100.00
49216;BME280;45943;53.148;8.204;2022-12-10T10:40:05;101141.84;;;4.78;100.00
49216;BME280;45943;53.148;8.204;2022-12-10T10:42:41;101145.00;;;4.69;100.00
49216;BME280;45943;53.148;8.204;2022-12-10T10:45:30;101142.34;;;4.35;100.00
49216;BME280;45943;53.148;8.204;2022-12-10T10:48:19;101149.13;;;4.57;100.00
49216;BME280;45943;53.148;8.204;2022-12-10T10:50:48;101153.03;;;4.33;100.00
49216;BME280;45943;53.148;8.204;2022-12-10T10:55:52;101150.31;;;4.69;100.00
49216;BME280;45943;53.148;8.204;2022-12-10T10:58:20;101155.69;;;3.59;100.00
49216;BME280;45943;53.148;8.204;2022-12-10T11:00:55;101159.19;;;3.41;100.00
49216;BME280;45943;53.148;8.204;2022-12-10T11:03:45;101154.31;;;3.32;100.00
49216;BME280;45943;53.148;8.204;2022-12-10T11:06:13;101156.25;;;3.28;100.00
49216;BME280;45943;53.148;8.204;2022-12-10T11:08:40;101154.16;;;3.16;100.00
49216;BME280;45943;53.148;8.204;2022-12-10T11:11:51;101158.25;;;3.03;100.00
49216;BME280;45943;53.148;8.204;2022-12-10T11:16:59;101148.53;;;3.03;100.00
49216;BME280;45943;53.148;8.204;2022-12-10T11:19:28;101140.91;;;3.91;100.00
49216;BME280;45943;53.148;8.204;2022-12-10T11:21:54;101128.03;;;4.54;100.00
49216;BME280;45943;53.148;8.204;2022-12-10T11:24:20;101127.88;;;4.75;100.00
49216;BME280;45943;53.148;8.204;2022-12-10T11:27:02;101128.34;;;4.66;100.00
49216;BME280;45943;53.148;8.204;2022-12-10T11:35:14;101118.66;;;4.65;100.00
49216;BME280;45943;53.148;8.204;2022-12-10T11:43:22;101136.97;;;3.25;100.00
49216;BME280;45943;53.148;8.204;2022-12-10T11:48:40;101134.88;;;2.92;100.00
49216;BME280;45943;53.148;8.204;2022-12-10T11:51:16;101138.28;;;2.96;100.00
49216;BME280;45943;53.148;8.204;2022-12-10T11:54:14;101141.28;;;3.46;100.00
49216;BME280;45943;53.148;8.204;2022-12-10T11:57:03;101144.31;;;3.76;100.00
49216;BME280;45943;53.148;8.204;2022-12-10T12:05:18;101134.59;;;3.94;100.00
49216;BME280;45943;53.148;8.204;2022-12-10T12:08:07;101136.34;;;3.76;100.00
49216;BME280;45943;53.148;8.204;2022-12-10T12:16:08;101123.78;;;3.42;100.00
49216;BME280;45943;53.148;8.204;2022-12-10T12:21:26;101125.56;;;3.79;100.00
49216;BME280;45943;53.148;8.204;2022-12-10T12:26:45;101107.09;;;4.14;100.00
49216;BME280;45943;53.148;8.204;2022-12-10T12:31:54;101109.78;;;4.12;100.00
49216;BME280;45943;53.148;8.204;2022-12-10T12:37:29;101124.88;;;3.76;100.00
49216;BME280;45943;53.148;8.204;2022-12-10T12:40:03;101126.34;;;3.81;100.00
49216;BME280;45943;53.148;8.204;2022-12-10T12:42:40;101127.00;;;3.86;100.00
49216;BME280;45943;53.148;8.204;2022-12-10T12:45:15;101128.66;;;3.89;100.00
49216;BME280;45943;53.148;8.204;2022-12-10T12:47:47;101127.25;;;3.99;100.00
49216;BME280;45943;53.148;8.204;2022-12-10T12:50:42;101127.88;;;3.87;100.00
49216;BME280;45943;53.148;8.204;2022-12-10T12:53:16;101134.81;;;3.70;100.00
49216;BME280;45943;53.148;8.204;2022-12-10T12:56:05;101128.22;;;3.79;100.00
49216;BME280;45943;53.148;8.204;2022-12-10T13:04:19;101132.06;;;3.91;100.00
49216;BME280;45943;53.148;8.204;2022-12-10T13:12:45;101136.00;;;3.65;100.00
49216;BME280;45943;53.148;8.204;2022-12-10T13:28:27;101150.31;;;3.80;100.00
49216;BME280;45943;53.148;8.204;2022-12-10T13:36:38;101150.47;;;3.77;100.00
49216;BME280;45943;53.148;8.204;2022-12-10T13:39:34;101154.84;;;3.78;100.00
49216;BME280;45943;53.148;8.204;2022-12-10T13:45:38;101157.75;;;3.71;100.00
49216;BME280;45943;53.148;8.204;2022-12-10T13:47:49;101155.47;;;3.83;100.00
49216;BME280;45943;53.148;8.204;2022-12-10T13:50:24;101163.81;;;3.94;100.00
49216;BME280;45943;53.148;8.204;2022-12-10T13:53:08;101162.94;;;3.93;100.00
49216;BME280;45943;53.148;8.204;2022-12-10T13:58:26;101166.75;;;3.69;100.00
49216;BME280;45943;53.148;8.204;2022-12-10T14:01:16;101167.31;;;3.76;100.00
49216;BME280;45943;53.148;8.204;2022-12-10T14:07:01;101171.78;;;3.75;100.00
49216;BME280;45943;53.148;8.204;2022-12-10T14:09:31;101173.56;;;3.56;100.00
49216;BME280;45943;53.148;8.204;2022-12-10T14:14:30;101169.78;;;3.41;100.00
49216;BME280;45943;53.148;8.204;2022-12-10T14:17:01;101174.91;;;3.45;100.00
49216;BME280;45943;53.148;8.204;2022-12-10T14:19:30;101180.25;;;3.44;100.00
49216;BME280;45943;53.148;8.204;2022-12-10T14:21:58;101185.94;;;3.36;100.00
49216;BME280;45943;53.148;8.204;2022-12-10T14:24:35;101185.84;;;3.38;100.00
49216;BME280;45943;53.148;8.204;2022-12-10T14:27:12;101191.00;;;3.41;100.00
49216;BME280;45943;53.148;8.204;2022-12-10T14:29:44;101187.09;;;3.50;100.00
49216;BME280;45943;53.148;8.204;2022-12-10T14:32:15;101189.97;;;3.45;100.00
49216;BME280;45943;53.148;8.204;2022-12-10T14:34:55;101186.88;;;3.54;100.00
49216;BME280;45943;53.148;8.204;2022-12-10T14:37:24;101183.50;;;3.69;100.00
49216;BME280;45943;53.148;8.204;2022-12-10T14:39:52;101185.03;;;3.75;100.00
49216;BME280;45943;53.148;8.204;2022-12-10T14:42:19;101190.13;;;3.80;100.00
49216;BME280;45943;53.148;8.204;2022-12-10T14:44:45;101188.03;;;3.86;100.00
49216;BME280;45943;53.148;8.204;2022-12-10T14:47:17;101196.94;;;3.85;100.00
49216;BME280;45943;53.148;8.204;2022-12-10T14:49:49;101191.97;;;3.78;100.00
49216;BME280;45943;53.148;8.204;2022-12-10T14:52:21;101200.72;;;3.80;100.00
49216;BME280;45943;53.148;8.204;2022-12-10T14:54:49;101188.25;;;3.82;100.00